Time;durP1;ratioP1;P1;durP2;ratioP2;P2;SDS_P1;SDS_P2;PMS_P1;PMS_P2;Temp;Humidity;BMP_temperature;BMP_pressure;BME280_temperature;BME280_humidity;BME280_pressure;Samples;Min_cycle;Max_cycle;Signal;HPM_P1;HPM_P2
2023/09/26 00:01:31;;;;;;;3.47;1.90;;;15.90;99.90;;;;;;5053874;28;20054;-81
2023/09/26 00:03:56;;;;;;;6.50;3.08;;;15.80;99.90;;;;;;5054773;28;20580;-81
2023/09/26 00:06:23;;;;;;;5.00;2.65;;;15.90;99.90;;;;;;5052966;28;20123;-81
2023/09/26 00:08:52;;;;;;;5.75;2.50;;;15.80;99.90;;;;;;5051232;28;20098;-80
2023/09/26 00:11:18;;;;;;;6.15;2.60;;;15.80;99.90;;;;;;5068066;28;20136;-80
2023/09/26 00:13:44;;;;;;;6.53;2.50;;;15.80;99.90;;;;;;5068394;28;20048;-80
2023/09/26 00:16:11;;;;;;;5.13;2.40;;;15.80;99.90;;;;;;5070727;28;20049;-80
2023/09/26 00:18:40;;;;;;;5.65;2.80;;;15.80;99.90;;;;;;5053871;28;20048;-80
2023/09/26 00:21:06;;;;;;;4.95;2.10;;;15.90;99.90;;;;;;5054550;28;20041;-80
2023/09/26 00:23:31;;;;;;;5.32;2.70;;;15.80;99.90;;;;;;5070616;28;20498;-80
2023/09/26 00:25:57;;;;;;;4.38;2.50;;;15.80;99.90;;;;;;5069328;28;20128;-80
2023/09/26 00:28:23;;;;;;;6.03;2.88;;;15.80;99.90;;;;;;5055564;28;20044;-80
2023/09/26 00:30:49;;;;;;;5.72;2.50;;;15.80;99.90;;;;;;5057082;28;20404;-81
2023/09/26 00:33:14;;;;;;;4.85;2.40;;;15.80;99.90;;;;;;5052388;28;20041;-81
2023/09/26 00:35:40;;;;;;;4.85;2.20;;;15.80;99.90;;;;;;5051901;28;20062;-80
2023/09/26 00:38:05;;;;;;;4.85;2.30;;;15.70;99.90;;;;;;5056582;28;20543;-81
2023/09/26 00:40:31;;;;;;;5.45;2.45;;;15.70;99.90;;;;;;5058076;28;20044;-81
2023/09/26 00:43:00;;;;;;;6.53;2.60;;;15.70;99.90;;;;;;5058038;28;20033;-81
2023/09/26 00:45:26;;;;;;;7.72;2.80;;;15.70;99.90;;;;;;5058738;28;20044;-80
2023/09/26 00:47:53;;;;;;;4.85;2.30;;;15.70;99.90;;;;;;5057004;28;20040;-80
2023/09/26 00:50:22;;;;;;;4.78;2.42;;;15.70;99.90;;;;;;5074168;28;20084;-80
2023/09/26 00:52:49;;;;;;;6.40;3.15;;;15.70;99.90;;;;;;5057931;28;20043;-80
2023/09/26 00:55:20;;;;;;;5.30;2.58;;;15.70;99.90;;;;;;5061293;28;20056;-80
2023/09/26 00:57:46;;;;;;;6.78;3.33;;;15.70;99.90;;;;;;5074339;28;20041;-81
2023/09/26 01:00:15;;;;;;;6.63;2.90;;;15.70;99.90;;;;;;5056047;28;20112;-81
2023/09/26 01:02:41;;;;;;;6.13;2.50;;;15.70;99.90;;;;;;5047673;28;20063;-80
2023/09/26 01:05:08;;;;;;;5.43;2.63;;;15.70;99.90;;;;;;5051782;28;20033;-80
2023/09/26 01:07:34;;;;;;;5.43;2.78;;;15.70;99.90;;;;;;5043014;28;20043;-80
2023/09/26 01:10:00;;;;;;;6.22;2.97;;;15.70;99.90;;;;;;5089291;28;20075;-81
2023/09/26 01:12:29;;;;;;;6.35;3.08;;;15.70;99.90;;;;;;5071722;28;20032;-81
2023/09/26 01:14:55;;;;;;;6.20;2.70;;;15.70;99.90;;;;;;5072201;28;20033;-81
2023/09/26 01:17:21;;;;;;;7.13;3.05;;;15.70;99.90;;;;;;5079976;28;20033;-81
2023/09/26 01:19:47;;;;;;;5.47;2.65;;;15.60;99.90;;;;;;5056514;28;21397;-81
2023/09/26 01:22:16;;;;;;;6.38;3.03;;;15.60;99.90;;;;;;5055283;28;20078;-80
2023/09/26 01:24:43;;;;;;;5.78;2.92;;;15.60;99.90;;;;;;5053385;28;20035;-81
2023/09/26 01:27:09;;;;;;;8.38;3.30;;;15.60;99.90;;;;;;5048459;28;20048;-81
2023/09/26 01:29:35;;;;;;;7.38;3.40;;;15.60;99.90;;;;;;5055539;28;20040;-81
2023/09/26 01:32:00;;;;;;;6.80;2.60;;;15.60;99.90;;;;;;5062243;28;20041;-81
2023/09/26 01:34:26;;;;;;;6.45;3.30;;;15.60;99.90;;;;;;5071419;28;20558;-81
2023/09/26 01:36:51;;;;;;;6.20;3.15;;;15.60;99.90;;;;;;5055360;28;20041;-81
2023/09/26 01:39:17;;;;;;;6.30;3.45;;;15.60;99.90;;;;;;5054655;28;20063;-81
2023/09/26 01:41:42;;;;;;;6.80;3.40;;;15.70;99.90;;;;;;5054737;28;20037;-82
2023/09/26 01:44:08;;;;;;;6.63;3.20;;;15.70;99.90;;;;;;5056848;28;20066;-81
2023/09/26 01:46:34;;;;;;;7.72;3.45;;;15.70;99.90;;;;;;5071105;28;20120;-82
2023/09/26 01:49:00;;;;;;;6.68;3.40;;;15.60;99.90;;;;;;5071490;28;20042;-82
2023/09/26 01:51:26;;;;;;;7.07;3.30;;;15.60;99.90;;;;;;5055199;28;20040;-82
2023/09/26 01:53:51;;;;;;;8.10;3.28;;;15.60;99.90;;;;;;5038613;28;20032;-81
2023/09/26 01:56:17;;;;;;;6.72;3.30;;;15.60;99.90;;;;;;5060347;28;20485;-81
2023/09/26 01:58:43;;;;;;;8.73;3.67;;;15.60;99.90;;;;;;5056592;28;20404;-81
2023/09/26 02:01:08;;;;;;;7.25;3.35;;;15.60;99.90;;;;;;5055728;28;20032;-81
2023/09/26 02:03:34;;;;;;;6.47;3.22;;;15.60;99.90;;;;;;5056276;28;20093;-81
2023/09/26 02:06:00;;;;;;;6.25;3.47;;;15.60;99.90;;;;;;5071972;28;20079;-81
2023/09/26 02:08:25;;;;;;;8.63;3.72;;;15.60;99.90;;;;;;5072865;28;20055;-81
2023/09/26 02:10:51;;;;;;;7.05;3.90;;;15.60;99.90;;;;;;5055575;28;20059;-81
2023/09/26 02:13:17;;;;;;;7.50;4.15;;;15.60;99.90;;;;;;5055168;28;20519;-80
2023/09/26 02:15:42;;;;;;;6.45;3.83;;;15.60;99.90;;;;;;5064010;28;20131;-81
2023/09/26 02:18:08;;;;;;;7.60;3.70;;;15.50;99.90;;;;;;5055288;28;20044;-81
2023/09/26 02:20:34;;;;;;;7.70;4.03;;;15.60;99.90;;;;;;5071850;28;20111;-81
2023/09/26 02:22:59;;;;;;;7.40;3.72;;;15.60;99.90;;;;;;5054535;28;20040;-81
2023/09/26 02:25:25;;;;;;;6.10;3.67;;;15.60;99.90;;;;;;5071892;28;20032;-81
2023/09/26 02:27:51;;;;;;;8.70;3.97;;;15.50;99.90;;;;;;5055550;28;20055;-81
2023/09/26 02:30:28;;;;;;;6.88;4.22;;;15.50;99.90;;;;;;5055376;28;20079;-81
2023/09/26 02:32:54;;;;;;;8.85;4.28;;;15.50;99.90;;;;;;5069570;28;20042;-81
2023/09/26 02:35:20;;;;;;;8.55;4.40;;;15.50;99.90;;;;;;5064231;28;20080;-81
2023/09/26 02:37:46;;;;;;;7.38;4.35;;;15.50;99.90;;;;;;5044267;28;20075;-81
2023/09/26 02:40:12;;;;;;;8.13;4.10;;;15.50;99.90;;;;;;5051284;28;20374;-81
2023/09/26 02:42:44;;;;;;;9.23;4.60;;;15.50;99.90;;;;;;5061212;28;20036;-81
2023/09/26 02:45:11;;;;;;;8.00;4.72;;;15.40;99.90;;;;;;5053294;28;20527;-81
2023/09/26 02:47:37;;;;;;;8.02;4.30;;;15.50;99.90;;;;;;5053847;28;20520;-81
2023/09/26 02:50:03;;;;;;;8.75;4.50;;;15.50;99.90;;;;;;5054672;28;20070;-81
2023/09/26 02:52:29;;;;;;;8.30;5.07;;;15.50;99.90;;;;;;5047899;28;20436;-81
2023/09/26 02:54:54;;;;;;;7.93;4.78;;;15.50;99.90;;;;;;5071143;28;20036;-81
2023/09/26 02:57:20;;;;;;;11.45;4.90;;;15.40;99.90;;;;;;5064420;28;20036;-80
2023/09/26 02:59:46;;;;;;;8.75;4.88;;;15.40;99.90;;;;;;5049611;28;20040;-81
2023/09/26 03:02:11;;;;;;;9.45;5.20;;;15.30;99.90;;;;;;5068698;28;20429;-81
2023/09/26 03:04:37;;;;;;;9.35;5.22;;;15.30;99.90;;;;;;5053800;28;20521;-81
2023/09/26 03:07:03;;;;;;;8.90;4.78;;;15.30;99.90;;;;;;5056397;28;20033;-81
2023/09/26 03:09:29;;;;;;;8.93;4.40;;;15.30;99.90;;;;;;5057980;28;20045;-81
2023/09/26 03:11:54;;;;;;;9.07;5.00;;;15.20;99.90;;;;;;5071167;28;20036;-80
2023/09/26 03:14:20;;;;;;;8.95;5.10;;;15.20;99.90;;;;;;5055021;28;20037;-80
2023/09/26 03:16:46;;;;;;;9.95;4.97;;;15.10;99.90;;;;;;5052953;28;20037;-81
2023/09/26 03:19:12;;;;;;;10.18;5.07;;;15.10;99.90;;;;;;5078646;28;20052;-81
2023/09/26 03:21:37;;;;;;;8.02;4.82;;;15.10;99.90;;;;;;5038054;28;20044;-81
2023/09/26 03:24:03;;;;;;;9.70;5.28;;;15.10;99.90;;;;;;5070939;28;20041;-81
2023/09/26 03:26:29;;;;;;;9.02;5.10;;;15.00;99.90;;;;;;5071090;28;20049;-81
2023/09/26 03:28:54;;;;;;;9.20;5.10;;;15.00;99.90;;;;;;5072004;28;20124;-81
2023/09/26 03:31:20;;;;;;;10.07;5.45;;;15.00;99.90;;;;;;5056122;28;20037;-81
2023/09/26 03:33:48;;;;;;;8.98;5.72;;;14.90;99.90;;;;;;5052068;28;20115;-81
2023/09/26 03:36:13;;;;;;;8.93;5.45;;;14.90;99.90;;;;;;5070692;28;20554;-81
2023/09/26 03:38:39;;;;;;;9.45;5.50;;;14.80;99.90;;;;;;5054555;28;20037;-81
2023/09/26 03:41:06;;;;;;;9.80;5.78;;;14.90;99.90;;;;;;5053388;28;20033;-82
2023/09/26 03:43:32;;;;;;;10.20;5.30;;;14.80;99.90;;;;;;5054791;28;20037;-81
2023/09/26 03:46:05;;;;;;;9.35;5.68;;;14.70;99.90;;;;;;5069563;28;20033;-81
2023/09/26 03:48:31;;;;;;;8.70;4.93;;;14.70;99.90;;;;;;5051092;28;20041;-81
2023/09/26 03:51:26;;;;;;;10.50;5.35;;;14.60;99.90;;;;;;5065104;28;20263;-80
2023/09/26 03:53:52;;;;;;;8.02;4.72;;;14.60;99.90;;;;;;5032391;28;20053;-81
2023/09/26 03:56:17;;;;;;;8.45;4.40;;;14.60;99.90;;;;;;5066897;28;20401;-81
2023/09/26 03:58:43;;;;;;;8.23;4.85;;;14.50;99.90;;;;;;5070962;28;20045;-81
2023/09/26 04:01:16;;;;;;;8.95;5.03;;;14.40;99.90;;;;;;5070602;28;20599;-81
2023/09/26 04:03:48;;;;;;;9.95;5.35;;;14.40;99.90;;;;;;5055200;28;20089;-81
2023/09/26 04:06:18;;;;;;;10.07;6.72;;;14.40;99.90;;;;;;5072861;28;20094;-81
2023/09/26 04:08:43;;;;;;;9.25;5.63;;;14.40;99.90;;;;;;5064094;28;20033;-81
2023/09/26 04:11:16;;;;;;;10.48;5.63;;;14.40;99.90;;;;;;5056917;28;20090;-81
2023/09/26 04:13:42;;;;;;;9.63;5.38;;;14.40;99.90;;;;;;5057836;28;20045;-81
2023/09/26 04:16:09;;;;;;;8.88;4.97;;;14.30;99.90;;;;;;5063078;28;20044;-81
2023/09/26 04:18:34;;;;;;;9.50;5.43;;;14.30;99.90;;;;;;5066372;28;20520;-81
2023/09/26 04:21:06;;;;;;;8.98;5.70;;;14.30;99.90;;;;;;5057506;28;20119;-81
2023/09/26 04:23:31;;;;;;;9.57;5.40;;;14.30;99.90;;;;;;5053510;28;20416;-81
2023/09/26 04:25:57;;;;;;;8.20;5.18;;;14.30;99.90;;;;;;5083120;28;20036;-81
2023/09/26 04:28:23;;;;;;;9.75;5.20;;;14.30;99.90;;;;;;5056835;28;20146;-81
2023/09/26 04:30:49;;;;;;;9.00;5.03;;;14.30;99.90;;;;;;5073880;28;20052;-81
2023/09/26 04:33:16;;;;;;;9.65;5.47;;;14.20;99.90;;;;;;5077079;28;20118;-81
2023/09/26 04:35:41;;;;;;;9.27;5.57;;;14.20;99.90;;;;;;5061758;28;20036;-82
2023/09/26 04:38:07;;;;;;;8.27;5.68;;;14.20;99.90;;;;;;5053859;28;20405;-82
2023/09/26 04:40:36;;;;;;;10.88;5.65;;;14.20;99.90;;;;;;5072153;28;20039;-81
2023/09/26 04:43:03;;;;;;;11.40;6.53;;;14.20;99.90;;;;;;5071408;28;20044;-81
2023/09/26 04:45:33;;;;;;;9.70;5.97;;;14.30;99.90;;;;;;5057803;28;20041;-81
2023/09/26 04:48:00;;;;;;;10.77;6.80;;;14.20;99.90;;;;;;5089305;28;20051;-81
2023/09/26 04:50:29;;;;;;;10.80;6.28;;;14.00;99.90;;;;;;5072643;28;20080;-81
2023/09/26 04:52:56;;;;;;;9.40;6.18;;;14.10;99.90;;;;;;5073758;28;20040;-81
2023/09/26 04:55:22;;;;;;;9.85;6.60;;;14.00;99.90;;;;;;5072314;28;20049;-81
2023/09/26 04:57:48;;;;;;;9.70;6.45;;;14.00;99.90;;;;;;5056908;28;20558;-80
2023/09/26 05:00:17;;;;;;;9.75;6.68;;;14.10;99.90;;;;;;5056822;28;20135;-80
2023/09/26 05:02:44;;;;;;;9.57;6.78;;;13.90;99.90;;;;;;5054820;28;20033;-81
2023/09/26 05:05:11;;;;;;;9.88;5.97;;;13.90;99.90;;;;;;5043495;28;20083;-80
2023/09/26 05:07:36;;;;;;;8.65;6.10;;;13.90;99.90;;;;;;5060690;28;20045;-80
2023/09/26 05:10:03;;;;;;;11.43;7.05;;;13.90;99.90;;;;;;5063396;28;20040;-80
2023/09/26 05:12:29;;;;;;;9.52;7.00;;;13.90;99.90;;;;;;5053407;28;20040;-80
2023/09/26 05:14:55;;;;;;;10.02;6.75;;;13.90;99.90;;;;;;5051511;28;20119;-80
2023/09/26 05:17:24;;;;;;;10.30;6.85;;;13.90;99.90;;;;;;5068376;28;20119;-80
2023/09/26 05:19:50;;;;;;;10.18;6.72;;;13.80;99.90;;;;;;5055862;28;20037;-80
2023/09/26 05:22:17;;;;;;;9.80;6.32;;;13.70;99.90;;;;;;5051340;28;20370;-80
2023/09/26 05:24:43;;;;;;;10.40;6.50;;;13.70;99.90;;;;;;5073937;28;20048;-80
2023/09/26 05:27:09;;;;;;;11.60;8.50;;;13.70;99.90;;;;;;5073037;28;20041;-80
2023/09/26 05:29:35;;;;;;;11.35;6.97;;;13.80;99.90;;;;;;5056662;28;20044;-80
2023/09/26 05:32:01;;;;;;;9.73;6.90;;;13.70;99.90;;;;;;5056475;28;20041;-80
2023/09/26 05:34:27;;;;;;;10.52;7.20;;;13.70;99.90;;;;;;5049457;28;20039;-80
2023/09/26 05:36:52;;;;;;;10.15;6.45;;;13.70;99.90;;;;;;5055980;28;20048;-80
2023/09/26 05:39:18;;;;;;;10.95;6.90;;;13.70;99.90;;;;;;5072803;28;20040;-81
2023/09/26 05:41:43;;;;;;;10.95;7.38;;;13.70;99.90;;;;;;5070594;28;20123;-80
2023/09/26 05:44:11;;;;;;;10.27;7.05;;;13.70;99.90;;;;;;5055975;28;20036;-81
2023/09/26 05:46:37;;;;;;;12.98;7.55;;;13.70;99.90;;;;;;5066296;28;20033;-81
2023/09/26 05:49:02;;;;;;;11.82;7.45;;;13.70;99.90;;;;;;5072705;28;20124;-81
2023/09/26 05:51:28;;;;;;;9.98;6.88;;;13.70;99.90;;;;;;5055385;28;20036;-81
2023/09/26 05:53:53;;;;;;;11.10;7.80;;;13.70;99.90;;;;;;5046593;28;20048;-81
2023/09/26 05:56:19;;;;;;;11.52;7.03;;;13.70;99.90;;;;;;5056310;28;20049;-81
2023/09/26 05:58:47;;;;;;;10.68;6.90;;;13.70;99.90;;;;;;5072883;28;20463;-80
2023/09/26 06:01:12;;;;;;;10.18;6.88;;;13.70;99.90;;;;;;5071835;28;20559;-81
2023/09/26 06:03:38;;;;;;;12.32;6.13;;;13.70;99.90;;;;;;5053862;28;20060;-81
2023/09/26 06:06:04;;;;;;;10.25;6.90;;;13.70;99.90;;;;;;5071323;28;20035;-81
2023/09/26 06:08:30;;;;;;;9.88;6.35;;;13.80;99.90;;;;;;5055744;28;20079;-81
2023/09/26 06:10:56;;;;;;;10.13;6.10;;;13.70;99.90;;;;;;5070058;28;20563;-81
2023/09/26 06:13:21;;;;;;;9.75;5.68;;;13.70;99.90;;;;;;5069353;28;20404;-80
2023/09/26 06:15:47;;;;;;;9.75;6.30;;;13.70;99.90;;;;;;5051801;28;20436;-81
2023/09/26 06:18:12;;;;;;;9.48;5.80;;;13.70;99.90;;;;;;5043942;28;20037;-81
2023/09/26 06:20:40;;;;;;;10.68;5.90;;;13.70;99.90;;;;;;5050508;28;20451;-81
2023/09/26 06:23:06;;;;;;;10.07;6.63;;;13.70;99.90;;;;;;5063837;28;20037;-81
2023/09/26 06:25:31;;;;;;;8.63;5.88;;;13.70;99.90;;;;;;5063245;28;20051;-81
2023/09/26 06:27:57;;;;;;;10.02;5.85;;;13.70;99.90;;;;;;5063041;28;20072;-81
2023/09/26 06:30:22;;;;;;;10.88;5.88;;;13.70;99.90;;;;;;5046999;28;20550;-81
2023/09/26 06:32:48;;;;;;;10.75;6.57;;;13.70;99.90;;;;;;5066805;28;20043;-81
2023/09/26 06:35:14;;;;;;;10.60;6.25;;;13.80;99.90;;;;;;5054296;28;20055;-81
2023/09/26 06:37:40;;;;;;;12.48;6.18;;;13.90;99.90;;;;;;5046881;28;20127;-81
2023/09/26 06:40:06;;;;;;;9.52;5.65;;;13.80;99.90;;;;;;5046695;28;20124;-81
2023/09/26 06:42:35;;;;;;;9.10;5.18;;;13.80;99.90;;;;;;5051606;28;20634;-81
2023/09/26 06:45:01;;;;;;;9.55;5.78;;;13.80;99.90;;;;;;5044357;28;20062;-81
2023/09/26 06:47:27;;;;;;;9.00;5.65;;;13.80;99.90;;;;;;5066226;28;20045;-81
2023/09/26 06:49:54;;;;;;;8.70;5.80;;;13.90;99.90;;;;;;5052219;28;20033;-81
2023/09/26 06:52:22;;;;;;;10.07;5.97;;;13.90;99.90;;;;;;5053937;28;20090;-81
2023/09/26 06:54:47;;;;;;;8.52;5.57;;;13.90;99.90;;;;;;5054443;28;20507;-81
2023/09/26 06:57:17;;;;;;;8.43;5.45;;;13.90;99.90;;;;;;5054719;28;20041;-81
2023/09/26 06:59:48;;;;;;;10.05;6.05;;;13.90;99.90;;;;;;5064235;28;20044;-81
2023/09/26 07:02:14;;;;;;;10.63;6.88;;;14.10;99.90;;;;;;5087594;28;20078;-81
2023/09/26 07:04:39;;;;;;;11.35;6.45;;;14.00;99.90;;;;;;5071108;28;20033;-81
2023/09/26 07:07:05;;;;;;;9.32;6.57;;;14.10;99.90;;;;;;5053406;28;20036;-81
2023/09/26 07:09:31;;;;;;;11.20;7.18;;;14.10;99.90;;;;;;5060829;28;20048;-82
2023/09/26 07:11:56;;;;;;;10.10;6.97;;;14.10;99.90;;;;;;5068533;28;20036;-82
2023/09/26 07:14:22;;;;;;;9.80;6.78;;;14.20;99.90;;;;;;5070904;28;20032;-82
2023/09/26 07:16:47;;;;;;;11.70;7.90;;;14.30;99.90;;;;;;5067511;28;20397;-82
2023/09/26 07:19:13;;;;;;;12.13;6.88;;;14.40;99.90;;;;;;5068201;28;20062;-82
2023/09/26 07:21:39;;;;;;;10.85;7.65;;;14.40;99.90;;;;;;5053672;28;20127;-82
2023/09/26 07:24:05;;;;;;;11.20;7.30;;;14.50;99.90;;;;;;5049057;28;20500;-82
2023/09/26 07:26:32;;;;;;;11.25;6.63;;;14.60;99.90;;;;;;5053385;28;20036;-82
2023/09/26 07:28:58;;;;;;;9.95;6.88;;;14.70;99.90;;;;;;5052876;28;20041;-82
2023/09/26 07:31:23;;;;;;;10.13;7.00;;;14.60;99.90;;;;;;5052384;28;20114;-82
2023/09/26 07:33:49;;;;;;;11.57;7.05;;;14.80;99.90;;;;;;5048212;28;20067;-82
2023/09/26 07:36:15;;;;;;;11.45;7.55;;;14.80;99.90;;;;;;5053609;28;20032;-82
2023/09/26 07:38:41;;;;;;;13.15;7.22;;;14.90;99.90;;;;;;5055287;28;20036;-82
2023/09/26 07:41:06;;;;;;;10.73;7.45;;;15.00;99.90;;;;;;5057897;28;20059;-83
2023/09/26 07:43:35;;;;;;;12.02;7.47;;;15.10;99.90;;;;;;5057439;28;20043;-82
2023/09/26 07:46:09;;;;;;;9.45;6.25;;;15.00;99.90;;;;;;5073602;28;20036;-82
2023/09/26 07:48:35;;;;;;;12.02;7.18;;;15.10;99.90;;;;;;5058151;28;20072;-82
2023/09/26 07:51:02;;;;;;;11.73;7.18;;;15.30;99.90;;;;;;5055356;28;20040;-82
2023/09/26 07:53:28;;;;;;;11.20;7.18;;;15.20;99.90;;;;;;5048495;28;20037;-82
2023/09/26 07:55:56;;;;;;;12.32;6.90;;;15.20;99.90;;;;;;5056591;28;20067;-81
2023/09/26 07:58:22;;;;;;;10.13;6.80;;;15.20;99.90;;;;;;5064599;28;20067;-82
2023/09/26 08:00:47;;;;;;;10.82;6.85;;;15.20;99.90;;;;;;5053805;28;20036;-82
2023/09/26 08:03:13;;;;;;;12.82;8.00;;;15.30;99.90;;;;;;5056512;28;20400;-82
2023/09/26 08:05:39;;;;;;;13.35;7.75;;;15.40;99.90;;;;;;5057154;28;20041;-82
2023/09/26 08:08:04;;;;;;;10.90;6.90;;;15.40;99.90;;;;;;5038647;28;20041;-80
2023/09/26 08:10:31;;;;;;;11.25;7.22;;;15.40;99.90;;;;;;5056368;28;20119;-82
2023/09/26 08:12:58;;;;;;;12.90;7.75;;;15.50;99.90;;;;;;5073103;28;20090;-76
2023/09/26 08:15:24;;;;;;;12.35;7.10;;;15.60;99.90;;;;;;5065226;28;20047;-76
2023/09/26 08:17:49;;;;;;;13.70;7.50;;;15.60;99.90;;;;;;5059915;28;20124;-76
2023/09/26 08:20:16;;;;;;;11.43;6.60;;;15.60;99.90;;;;;;5072057;28;20115;-76
2023/09/26 08:22:41;;;;;;;13.80;8.27;;;15.60;99.90;;;;;;5070300;28;20033;-81
2023/09/26 08:25:08;;;;;;;14.85;8.73;;;15.60;99.90;;;;;;5051654;28;20098;-74
2023/09/26 08:27:33;;;;;;;11.98;7.57;;;15.70;99.90;;;;;;5076524;28;20049;-75
2023/09/26 08:29:59;;;;;;;11.50;6.85;;;15.70;99.90;;;;;;5056689;28;20420;-74
2023/09/26 08:32:26;;;;;;;12.68;7.60;;;15.80;99.90;;;;;;5055710;28;20074;-80
2023/09/26 08:34:51;;;;;;;11.82;7.45;;;15.80;99.90;;;;;;5060404;28;20036;-80
2023/09/26 08:37:17;;;;;;;12.65;7.68;;;15.90;99.90;;;;;;5062876;28;20045;-81
2023/09/26 08:39:47;;;;;;;11.88;6.63;;;15.90;99.90;;;;;;5072362;28;20036;-80
2023/09/26 08:42:24;;;;;;;12.60;7.60;;;15.90;99.90;;;;;;5056270;28;20031;-80
2023/09/26 08:44:50;;;;;;;11.82;6.95;;;16.00;99.90;;;;;;5052052;28;20054;-80
2023/09/26 08:47:16;;;;;;;12.18;6.82;;;16.00;99.90;;;;;;5056018;28;20032;-80
2023/09/26 08:49:44;;;;;;;11.73;7.30;;;16.00;99.90;;;;;;5067072;28;20044;-80
2023/09/26 08:52:10;;;;;;;13.15;7.38;;;16.00;99.90;;;;;;5086790;28;20051;-80
2023/09/26 08:54:35;;;;;;;14.10;7.97;;;16.00;99.90;;;;;;5059840;28;20036;-80
2023/09/26 08:57:02;;;;;;;13.02;7.18;;;16.10;99.90;;;;;;5055766;28;20489;-80
2023/09/26 08:59:31;;;;;;;13.10;7.30;;;16.10;99.90;;;;;;5055310;28;20554;-80
2023/09/26 09:01:57;;;;;;;12.75;7.00;;;16.20;99.90;;;;;;5055585;28;20087;-80
2023/09/26 09:04:23;;;;;;;11.88;6.82;;;16.10;99.90;;;;;;5071131;28;20033;-80
2023/09/26 09:07:00;;;;;;;11.60;6.40;;;16.20;99.90;;;;;;5054552;28;20044;-80
2023/09/26 09:09:26;;;;;;;10.75;6.88;;;16.20;99.90;;;;;;5057550;28;20076;-80
2023/09/26 09:11:51;;;;;;;11.43;6.93;;;16.30;99.90;;;;;;5073119;28;20072;-80
2023/09/26 09:14:31;;;;;;;10.50;5.85;;;16.30;99.90;;;;;;5081555;28;20043;-80
2023/09/26 09:16:57;;;;;;;12.15;6.82;;;16.50;99.90;;;;;;5057392;28;20036;-80
2023/09/26 09:19:44;;;;;;;13.40;7.32;;;16.60;99.90;;;;;;5057341;28;20527;-80
2023/09/26 09:22:20;;;;;;;9.02;5.80;;;16.60;99.90;;;;;;5073154;28;20049;-80
2023/09/26 09:24:56;;;;;;;10.07;5.43;;;16.70;99.90;;;;;;5057270;28;20036;-80
2023/09/26 09:27:38;;;;;;;10.07;5.95;;;16.70;99.90;;;;;;5057097;28;20051;-80
2023/09/26 09:30:12;;;;;;;9.90;6.13;;;16.80;99.90;;;;;;5057149;28;20536;-80
2023/09/26 09:32:39;;;;;;;11.18;5.90;;;16.90;99.90;;;;;;5056192;28;20036;-81
2023/09/26 09:35:08;;;;;;;9.57;5.40;;;17.30;99.90;;;;;;5056945;28;20090;-80
2023/09/26 09:37:33;;;;;;;10.15;5.05;;;17.40;99.90;;;;;;5056832;28;20032;-80
2023/09/26 09:39:59;;;;;;;8.27;4.80;;;17.50;99.90;;;;;;5073590;28;20067;-80
2023/09/26 09:42:25;;;;;;;8.63;3.95;;;17.70;99.90;;;;;;5052033;28;20033;-80
2023/09/26 09:44:50;;;;;;;11.18;4.97;;;17.70;99.90;;;;;;5056794;28;20044;-80
2023/09/26 09:47:23;;;;;;;7.95;4.55;;;17.70;99.90;;;;;;5073373;28;20490;-80
2023/09/26 09:49:51;;;;;;;10.20;4.50;;;17.80;99.90;;;;;;5057301;28;20040;-80
2023/09/26 09:52:19;;;;;;;8.93;4.50;;;18.00;99.90;;;;;;5055606;28;20393;-80
2023/09/26 09:54:45;;;;;;;11.57;5.10;;;18.00;99.90;;;;;;5049653;28;20143;-80
2023/09/26 09:57:17;;;;;;;8.07;4.20;;;18.30;99.90;;;;;;5046922;28;20508;-80
2023/09/26 09:59:44;;;;;;;9.18;4.07;;;18.20;99.90;;;;;;5056541;28;20040;-80
2023/09/26 10:02:15;;;;;;;9.30;5.30;;;18.20;99.90;;;;;;5056067;28;20036;-80
2023/09/26 10:04:44;;;;;;;10.55;4.70;;;18.30;99.90;;;;;;5055522;28;20477;-80
2023/09/26 10:07:12;;;;;;;9.43;4.85;;;18.40;99.90;;;;;;5056384;28;20063;-80
2023/09/26 10:09:39;;;;;;;9.98;4.50;;;18.50;99.90;;;;;;5056628;28;20402;-80
2023/09/26 10:12:06;;;;;;;8.85;4.18;;;18.50;99.90;;;;;;5056279;28;20048;-80
2023/09/26 10:14:32;;;;;;;8.23;4.78;;;18.40;99.90;;;;;;5067670;28;20090;-80
2023/09/26 10:16:59;;;;;;;8.82;4.80;;;18.50;99.90;;;;;;5072720;28;20041;-80
2023/09/26 10:19:26;;;;;;;8.30;3.92;;;18.50;99.90;;;;;;5056060;28;20162;-80
2023/09/26 10:21:53;;;;;;;13.55;4.43;;;18.40;99.90;;;;;;5073056;28;20546;-80
2023/09/26 10:24:18;;;;;;;9.70;4.45;;;18.40;99.90;;;;;;5071640;28;20090;-80
2023/09/26 10:26:48;;;;;;;8.48;4.15;;;18.40;99.90;;;;;;5083993;28;20036;-80
2023/09/26 10:29:20;;;;;;;10.07;4.80;;;18.40;99.90;;;;;;5072623;28;20048;-80
2023/09/26 10:31:55;;;;;;;7.57;3.58;;;18.40;99.90;;;;;;5072868;28;20439;-80
2023/09/26 10:34:33;;;;;;;6.28;3.65;;;18.40;99.90;;;;;;5051495;28;20040;-80
2023/09/26 10:37:00;;;;;;;7.50;3.67;;;18.60;99.90;;;;;;5056001;28;20127;-80
2023/09/26 10:39:39;;;;;;;6.20;2.83;;;18.60;99.90;;;;;;5072280;28;20052;-80
2023/09/26 10:42:22;;;;;;;7.32;3.30;;;18.60;99.90;;;;;;5072440;28;20036;-80
2023/09/26 10:44:50;;;;;;;9.38;3.50;;;18.60;99.90;;;;;;5072659;28;20043;-80
2023/09/26 10:47:23;;;;;;;6.60;2.90;;;18.70;99.90;;;;;;5072499;28;20079;-80
2023/09/26 10:49:49;;;;;;;8.05;3.97;;;18.70;99.90;;;;;;5055884;28;20090;-80
2023/09/26 10:52:16;;;;;;;10.93;4.30;;;18.70;99.90;;;;;;5055796;28;20479;-81
2023/09/26 10:54:42;;;;;;;8.00;3.65;;;18.80;99.90;;;;;;5072217;28;20049;-80
2023/09/26 10:57:18;;;;;;;8.50;3.80;;;18.80;99.90;;;;;;5055518;28;20048;-81
2023/09/26 10:59:44;;;;;;;7.50;3.35;;;18.80;99.90;;;;;;5055374;28;20123;-80
2023/09/26 11:02:10;;;;;;;8.88;4.05;;;18.80;99.90;;;;;;5053548;28;20493;-80
2023/09/26 11:04:36;;;;;;;7.35;3.38;;;18.90;99.90;;;;;;5055387;28;20048;-80
2023/09/26 11:07:02;;;;;;;7.18;3.33;;;18.90;99.90;;;;;;5055444;28;20043;-80
2023/09/26 11:09:29;;;;;;;6.45;3.33;;;18.90;99.90;;;;;;5055266;28;20598;-80
2023/09/26 11:11:56;;;;;;;7.35;3.72;;;18.90;99.90;;;;;;5053751;28;20091;-81
2023/09/26 11:14:28;;;;;;;8.15;3.80;;;19.00;99.90;;;;;;5070760;28;20037;-80
2023/09/26 11:16:54;;;;;;;7.43;3.50;;;19.00;99.90;;;;;;5072650;28;20147;-80
2023/09/26 11:19:23;;;;;;;8.75;3.90;;;19.00;99.90;;;;;;5071814;28;20543;-80
2023/09/26 11:21:49;;;;;;;7.50;3.35;;;19.00;99.90;;;;;;5072115;28;20052;-81
2023/09/26 11:24:22;;;;;;;9.15;4.00;;;19.10;99.90;;;;;;5066788;28;20039;-80
2023/09/26 11:26:49;;;;;;;8.80;3.90;;;19.10;99.90;;;;;;5055481;28;20036;-80
2023/09/26 11:29:18;;;;;;;9.50;4.28;;;19.10;99.90;;;;;;5054870;28;20044;-81
2023/09/26 11:31:45;;;;;;;8.05;4.18;;;19.20;99.90;;;;;;5055045;28;20505;-81
2023/09/26 11:34:11;;;;;;;7.93;4.90;;;19.20;99.90;;;;;;5055129;28;20045;-81
2023/09/26 11:36:40;;;;;;;8.07;4.35;;;19.20;99.90;;;;;;5055009;28;20045;-80
2023/09/26 11:39:08;;;;;;;10.88;4.40;;;19.10;99.90;;;;;;5053716;28;20040;-80
2023/09/26 11:41:33;;;;;;;8.40;3.88;;;19.00;99.90;;;;;;5066949;28;20033;-81
2023/09/26 11:44:10;;;;;;;7.97;3.90;;;19.00;99.90;;;;;;5071740;28;20050;-81
2023/09/26 11:46:45;;;;;;;8.93;4.18;;;19.00;99.90;;;;;;5055214;28;20389;-81
2023/09/26 11:49:13;;;;;;;6.57;3.85;;;19.00;99.90;;;;;;5071576;28;20127;-81
2023/09/26 11:51:38;;;;;;;8.63;3.90;;;19.00;99.90;;;;;;5053567;28;20037;-81
2023/09/26 11:54:08;;;;;;;8.23;4.35;;;19.10;99.90;;;;;;5055175;28;20097;-81
2023/09/26 11:56:34;;;;;;;11.40;4.78;;;19.30;99.90;;;;;;5071350;28;20067;-81
2023/09/26 11:59:01;;;;;;;8.75;4.53;;;19.40;99.90;;;;;;5054850;28;20512;-81
2023/09/26 12:01:27;;;;;;;8.35;4.63;;;19.30;99.90;;;;;;5050271;28;20060;-81
2023/09/26 12:03:53;;;;;;;12.27;4.70;;;19.20;99.90;;;;;;5070627;28;20043;-81
2023/09/26 12:06:18;;;;;;;8.95;4.97;;;19.20;99.90;;;;;;5055112;28;20040;-81
2023/09/26 12:08:44;;;;;;;8.30;4.80;;;19.00;99.90;;;;;;5054686;28;20065;-80
2023/09/26 12:11:11;;;;;;;9.02;5.15;;;19.10;99.90;;;;;;5070297;28;20119;-81
2023/09/26 12:13:37;;;;;;;8.48;4.50;;;19.10;99.90;;;;;;5073079;28;20463;-81
2023/09/26 12:16:04;;;;;;;8.93;5.10;;;19.10;99.90;;;;;;5034790;28;20133;-81
2023/09/26 12:18:31;;;;;;;9.38;5.32;;;19.10;99.90;;;;;;5051189;28;20045;-81
2023/09/26 12:20:57;;;;;;;7.65;4.88;;;18.90;99.90;;;;;;5051563;28;20041;-81
2023/09/26 12:23:24;;;;;;;9.02;5.47;;;19.10;99.90;;;;;;5069676;28;20119;-81
2023/09/26 12:25:49;;;;;;;10.60;5.07;;;19.00;99.90;;;;;;5092197;28;20459;-81
2023/09/26 12:28:18;;;;;;;9.30;5.35;;;19.00;99.90;;;;;;5092027;28;20075;-81
2023/09/26 12:30:44;;;;;;;9.10;4.97;;;19.10;99.90;;;;;;5073789;28;20424;-81
2023/09/26 12:33:10;;;;;;;8.75;4.82;;;19.00;99.90;;;;;;5058302;28;20076;-81
2023/09/26 12:35:36;;;;;;;8.25;4.97;;;19.10;99.90;;;;;;5058373;28;20040;-81
2023/09/26 12:38:02;;;;;;;9.93;5.22;;;19.10;99.90;;;;;;5058132;28;20093;-81
2023/09/26 12:40:27;;;;;;;9.15;5.43;;;19.10;99.90;;;;;;5058055;28;20060;-81
2023/09/26 12:42:53;;;;;;;7.88;4.95;;;19.20;99.90;;;;;;5056839;28;20374;-81